17 maggio 2022

Tempo Codice Tempo metereologico Temp. Vista Nuvole Vento METAR/SPECI
06:00
V
7 °C 32 km - 100°   100° 6 kt METAR CYVR 171300Z 10006KT 20SM FEW030 FEW060 FEW140 SCT210 07/05 A3022 RMK SC1SC1AS1CI2 SC TR SC TR SLP235
05:00
V
7 °C 32 km 15.000 ft 100°   100° 6 kt METAR CYVR 171200Z 10006KT 090V180 20SM FEW060 BKN150 OVC240 07/06 A3021 RMK SC1AS6CS1 SLP234
04:00
V
9 °C 32 km 17.000 ft 240°   240° 8 kt METAR CYVR 171100Z 24008KT 20SM FEW055 BKN170 OVC240 09/05 A3021 RMK SC2AS4CI2 SLP233
03:00
V
8 °C 32 km 5.300 ft Var   Var 2 kt METAR CYVR 171000Z VRB02KT 20SM BKN053 OVC150 08/06 A3021 RMK SC6AS2 SLP231
02:00
V
9 °C 32 km 5.300 ft 290°   290° 7 kt METAR CYVR 170900Z 29007KT 20SM BKN053 BKN180 09/06 A3020 RMK SC6AS1 SLP228
01:00
V
9 °C 32 km 5.200 ft 300°   300° 8 kt METAR CYVR 170800Z 30008KT 20SM BKN052 09/05 A3019 RMK SC6 SLP225
00:00
V
9 °C 32 km - 290°   290° 11 kt METAR CYVR 170700Z 29011KT 20SM SCT055 09/05 A3018 RMK SC3 SLP223

16 maggio 2022

Tempo Codice Tempo metereologico Temp. Vista Nuvole Vento METAR/SPECI
23:26
V
9 °C 32 km - 300°   300° 9 kt METAR CYVR 170626Z 30009KT 20SM FEW060 09/06 A3017 RMK SC1 SC TR WSHFT 0610 SLP219
23:00
V
10 °C 32 km - 260°   260° 8 kt METAR CYVR 170600Z 26008KT 20SM FEW060 10/07 A3017 RMK SC1 SC TR SLP219
22:00
V
11 °C 32 km - Var   Var 2 kt METAR CYVR 170500Z VRB02KT 20SM FEW055 FEW240 11/07 A3016 RMK SC1CI1 SC TR CI TR SLP217
21:00
V
11 °C 32 km - 270°   270° 7 kt METAR CYVR 170400Z 27007KT 20SM FEW055 FEW180 11/08 A3015 RMK SC2AC1 AC TR SLP212
20:00
V
13 °C 32 km 5.700 ft 190°   190° 8 kt METAR CYVR 170300Z 19008KT 20SM BKN057 BKN240 13/05 A3015 RMK SC6CI1 SLP211
19:00
V
13 °C 32 km 15.000 ft 180°   180° 5 kt METAR CYVR 170200Z 18005KT 20SM FEW050 FEW100 OVC150 13/07 A3014 RMK SC1AC1AS7 AC TR SLP208
18:00
V
13 °C 48 km 21.000 ft 210°   210° 4 kt METAR CYVR 170100Z 21004KT 30SM FEW050 FEW060 SCT140 BKN210 BKN240 13/06 A3014 RMK CU1SC1AS4CI1CS1 SC TR SLP207
17:00
V
14 °C 48 km 24.000 ft 250°   250° 7 kt METAR CYVR 170000Z 25007KT 30SM FEW055 BKN240 14/05 A3013 RMK CU2CS5 SLP205
16:00
V
15 °C 48 km 24.000 ft 250°   250° 6 kt METAR CYVR 162300Z 25006KT 30SM FEW055 FEW065 SCT210 BKN240 15/05 A3013 RMK CU2SC1CI1CS2 SC TR SLP205
15:00
V
15 °C 48 km - 260°   260° 6 kt METAR CYVR 162200Z 26006KT 200V280 30SM FEW055 FEW065 FEW180 SCT210 SCT240 15/08 A3012 RMK CU2SC1AC1CI2CS1 SC TR AC TR CS TR SLP203
14:00
V
15 °C 48 km 21.000 ft Var   Var 4 kt METAR CYVR 162100Z VRB04KT 30SM FEW050 SCT180 BKN210 15/06 A3011 RMK CU2AC1CI3 SLP200
13:00
V
15 °C 48 km 21.000 ft 290°   290° 3 kt METAR CYVR 162000Z 29003KT 220V330 30SM FEW050 FEW060 SCT190 BKN210 15/05 A3011 RMK CU2SC1AC1CI3 SC TR SLP197
12:00
V
14 °C 48 km 21.000 ft 260°   260° 9 kt METAR CYVR 161900Z 26009KT 30SM FEW050 FEW070 FEW160 SCT190 BKN210 14/05 A3009 RMK CU2AC1ACC1AC1CI4 AC TR ACC TR SLP192
11:00
V
14 °C 48 km 24.000 ft 250°   250° 10 kt METAR CYVR 161800Z 25010KT 30SM FEW045 SCT070 SCT080 SCT160 BKN240 14/06 A3006 RMK CU1AC2AC1AC1CS2 AC TR SLP183
10:00
V
13 °C 48 km 15.000 ft 270°   270° 16 24 kt METAR CYVR 161700Z 27016G24KT 30SM FEW030 FEW035 SCT060 BKN150 BKN210 13/06 A3003 RMK SC1SC1SC2AC3CI1 SC TR CI TR CU EMBEDED SLP173
09:00
V
12 °C 40 km 6.000 ft 260°   260° 9 kt METAR CYVR 161600Z 26009KT 25SM FEW015 SCT050 BKN060 BKN070 BKN090 12/07 A3000 RMK SC1SC3SC2AC1AC1 SC TR AC TR SLP161
08:00
V
11 °C 32 km 5.100 ft 220°   220° 6 kt METAR CYVR 161500Z 22006KT 170V240 20SM FEW015 BKN051 BKN070 11/09 A2998 RMK SC1SC5AC1 CU EMBEDED SLP153
07:20
V
11 °C 24 km 5.100 ft 190°   190° 9 kt METAR CYVR 161420Z 19009KT 15SM -RA FEW015 BKN051 BKN070 11/11 A2996 RMK SC1SC6AC1 AC TR SLP148
07:00
V
12 °C 32 km 5.000 ft 180°   180° 7 kt METAR CYVR 161400Z 18007KT 20SM FEW011 BKN050 BKN058 BKN070 12/11 A2995 RMK SC1SC5SC1AC1 AC TR SLP144
06:00
V
12 °C 32 km 5.500 ft 150°   150° 8 kt METAR CYVR 161300Z 15008KT 20SM FEW011 BKN055 BKN240 12/11 A2993 RMK SC1SC7CS1 SC TR CS TR SLP137
05:00
V
12 °C 24 km 6.100 ft 140°   140° 10 kt METAR CYVR 161200Z 14010KT 15SM SCT030 BKN061 OVC097 12/12 A2992 RMK SC3SC4AS1 SLP135
04:00
V
12 °C 19 km 5.700 ft 120°   120° 7 kt METAR CYVR 161100Z 12007KT 12SM FEW005 SCT030 OVC057 12/12 A2991 RMK SF1SC3SC4 SLP131
03:50
M
12 °C 13 km 2.100 ft 110°   110° 9 kt METAR CYVR 161050Z 11009KT 8SM -RA FEW006 BKN021 OVC054 12/12 A2991 RMK SF1SC5SC2 SLP132
03:13
V
12 °C 24 km 4.600 ft 120°   120° 7 kt METAR CYVR 161013Z 12007KT 15SM FEW012 SCT032 OVC046 12/12 A2991 RMK SC1SC3SC5 SC TR SLP131
03:00
V
12 °C 24 km 5.300 ft 110°   110° 7 kt METAR CYVR 161000Z 11007KT 15SM -RA FEW009 SCT020 OVC053 12/12 A2990 RMK SC1SC3SC5 SC TR SLP129
02:48
V
12 °C 24 km 5.500 ft 100°   100° 7 kt METAR CYVR 160948Z 10007KT 15SM -RA FEW009 SCT030 OVC055 12/12 A2990 RMK SC1SC3SC4 SLP129
02:00
V
12 °C 24 km 5.100 ft 090°   090° 7 kt METAR CYVR 160900Z 09007KT 15SM BKN051 OVC082 12/12 A2990 RMK SC6AC2 SLP127
01:00
V
12 °C 24 km 5.200 ft 100°   100° 8 kt METAR CYVR 160800Z 10008KT 15SM SCT030 OVC052 12/12 A2989 RMK SC3SC5 SLP123
00:18
V
12 °C 24 km 4.200 ft 090°   090° 7 kt METAR CYVR 160718Z 09007KT 15SM FEW020 OVC042 12/12 A2987 RMK SC1SC7 SLP119
00:00
M
12 °C 16 km 2.800 ft 100°   100° 7 kt METAR CYVR 160700Z 10007KT 10SM -RA SCT016 BKN028 OVC067 12/12 A2987 RMK SC3SC4NS1 SLP119

15 maggio 2022

Tempo Codice Tempo metereologico Temp. Vista Nuvole Vento METAR/SPECI
23:16
V
12 °C 19 km 5.800 ft 090°   090° 9 kt METAR CYVR 160616Z 09009KT 12SM -RA SCT016 BKN058 OVC072 12/12 A2987 RMK SC4SC3NS1 SLP119
23:05
M
12 °C 24 km 1.300 ft 090°   090° 7 kt METAR CYVR 160605Z 09007KT 15SM -RA OVC013 12/12 A2987 RMK SC8 SLP119
23:00
M
12 °C 24 km 1.500 ft 100°   100° 7 kt METAR CYVR 160600Z 10007KT 15SM OVC015 12/12 A2987 RMK SC8 SLP119
22:08
M
13 °C 32 km 1.500 ft 090°   090° 5 kt METAR CYVR 160508Z 09005KT 20SM BKN015 OVC039 13/12 A2987 RMK SC7SC1 SLP116
22:00
M
13 °C 32 km 1.400 ft 090°   090° 6 kt METAR CYVR 160500Z 09006KT 20SM BKN014 OVC041 13/12 A2986 RMK SC7SC1 SLP115
21:21
M
13 °C 24 km 1.300 ft 060°   060° 7 kt METAR CYVR 160421Z 06007KT 15SM -RA BKN013 OVC067 13/12 A2986 RMK SC7AC1 SLP114
21:00
M
13 °C 32 km 1.300 ft 060°   060° 7 kt METAR CYVR 160400Z 06007KT 20SM OVC013 13/13 A2986 RMK SC8 SLP113
20:00
M
13 °C 32 km 1.400 ft 090°   090° 9 kt METAR CYVR 160300Z 09009KT 20SM OVC014 13/12 A2985 RMK SC8 SLP109
19:33
M
13 °C 32 km 1.400 ft 100°   100° 11 kt METAR CYVR 160233Z 10011KT 20SM OVC014 13/13 A2984 RMK SC8 SLP106
19:15
M
13 °C 32 km 1.800 ft 090°   090° 15 kt METAR CYVR 160215Z 09015KT 20SM BKN018 OVC045 13/13 A2983 RMK SC6SC2 VIS NE LWR SLP105
19:00
M
13 °C 24 km 2.300 ft 110°   110° 15 kt METAR CYVR 160200Z 11015KT 15SM -RA BKN023 BKN055 13/12 A2983 RMK SC5SC2 VIS N LWR /R18/ SLP105
18:55
V
13 °C 19 km 5.000 ft 110°   110° 9 16 kt METAR CYVR 160155Z 11009G16KT 090V160 12SM RA SCT031 BKN050 BKN060 13/12 A2983 RMK SC3NS3SC1 SLP105
18:20
M
12 °C 13 km 1.500 ft 270°   270° 11 22 kt METAR CYVR 160120Z 27011G22KT 220V290 8SM R08R/2600VP6000FT/D +RA FEW006 BKN015 OVC071 12/12 A2985 RMK SF1SC5NS2 PRESRR SLP111
18:00
V
13 °C 23 km 3.000 ft 070°   070° 6 kt METAR CYVR 160100Z 07006KT 14SM -RA SCT024 BKN030 BKN055 OVC080 13/13 A2983 RMK SC4SC2SC1AS1 SLP104
17:00
M
12 °C 16 km 2.500 ft 090°   090° 11 kt METAR CYVR 160000Z 09011KT 10SM -RA BKN025 OVC070 12/12 A2984 RMK SC6AS2 SLP106
16:00
M
13 °C 40 km 2.100 ft 100°   100° 9 kt METAR CYVR 152300Z 10009KT 25SM -RA FEW010 OVC021 13/12 A2985 RMK SF1SC8 SF TR SLP110
15:00
M
14 °C 40 km 2.200 ft 070°   070° 11 kt METAR CYVR 152200Z 07011KT 25SM FEW020 BKN022 OVC070 14/12 A2987 RMK SC1SC7AS1 SC TR SLP117
14:43
M
14 °C 32 km 2.300 ft 080°   080° 12 kt METAR CYVR 152143Z 08012KT 20SM FEW020 BKN023 OVC030 14/13 A2987 RMK SC1SC5SC2 SC TR SLP119
14:00
V
13 °C 24 km 7.000 ft 090°   090° 10 kt METAR CYVR 152100Z 09010KT 15SM -RA FEW015 FEW029 SCT036 BKN070 OVC090 13/13 A2990 RMK SF1SC2SC2AS3AS1 SF TR SLP126
13:00
V
12 °C 16 km 3.700 ft 080°   080° 6 kt METAR CYVR 152000Z 08006KT 10SM -RA SCT029 BKN037 OVC060 12/12 A2992 RMK SC3SC3SC2 SLP133
12:00
M
12 °C 24 km 2.500 ft 080°   080° 6 kt METAR CYVR 151900Z 08006KT 15SM -RA BKN025 OVC030 12/12 A2993 RMK SC7SC1 SLP138
11:00
M
11 °C 16 km 2.600 ft 080°   080° 6 kt METAR CYVR 151800Z 08006KT 10SM -RA BKN026 OVC030 11/11 A2994 RMK SC7SC1 SLP140
10:00
V
12 °C 24 km 3.300 ft 070°   070° 7 kt METAR CYVR 151700Z 07007KT 15SM -RA BKN033 OVC036 12/11 A2995 RMK SC7SC1 SLP145
09:00
V
12 °C 24 km 4.100 ft 060°   060° 6 kt METAR CYVR 151600Z 06006KT 15SM -RA FEW030 BKN041 OVC050 12/11 A2997 RMK CU1SC6SC2 CU TR SLP150
08:30
V
11 °C 32 km 5.100 ft 080°   080° 7 kt METAR CYVR 151530Z 08007KT 20SM -RA SCT021 BKN051 OVC070 11/11 A2998 RMK SC3SC4AS1 SLP153
08:22
V
11 °C 40 km 7.000 ft 070°   070° 8 kt METAR CYVR 151522Z 07008KT 25SM FEW021 SCT059 BKN070 OVC080 11/11 A2998 RMK SC2SC2AS3AS1 SLP154
08:00
M
11 °C 32 km 2.300 ft 080°   080° 8 kt METAR CYVR 151500Z 08008KT 20SM -RA BKN023 OVC032 11/11 A2998 RMK SC6SC2 SLP156
Dati più vecchi

Scarica la nostra applicazione

Facile accesso a tutte le previsioni dell'aviazione sul tuo cellulare e tablet.
Con molte caratteristiche non disponibili sul sito web, come il supporto offline e una lista personale di aeroporti.